Airfield :
LOGIN :

Register | Disclaimer

   EN    FR    IT 

 










Legend :    VFR   Marginal VFR   IFR   Intensive IFR   Very Intensive IFR
Visi :
Ceiling :
>= 8 km
>= 3000ft
5 to 8 km
1000 to 3000 ft
1500m to 5 km
500 to 1000 ft
800 to 1500m
200 to 500 ft
< 800m
< 200 ft
Symbols :   Thunderstorms  Fog  Heavy snow  Heavy precipitations  Wind > 20 kt
SIGMETs :     Misc.  Thunderstorms  Icing  Turbulence  Mountain Waves  Volcanic Ashes






- Airport Elevation : 339 ft
- IATA code : UTI


EFUT - Utti Air Base

CURRENT METAR :
  • 011250Z 06010KT 020V090 CAVOK 17/03 Q1024

EXPIRED METARs :
  • 011220Z 05011KT 360V090 CAVOK 15/03 Q1024
  • 011150Z VRB09KT CAVOK 16/03 Q1024
  • 011120Z 05007KT 350V100 CAVOK 14/02 Q1025
  • 011050Z 04007KT 360V080 CAVOK 14/02 Q1025
  • 011020Z 05008KT 340V080 CAVOK 14/02 Q1025

TAF TAF EFUT
Valid from the 01 at 12:00 until the 01 at 17:00 UTC


011135Z 0112/0117 03008KT CAVOK



MET'MAP, your aeronautical weather chart ! - Copyright ORBIFLY December 2007 - Disclaimer

ORBIFLY MET'MAP TEAM :

Programming & Development : Alexandra Zaïnal
Concept & original design : Baudouin d'Aumeries
Assistance for programming : Marc-Olivier Méhu
Technical & hardware support : Manuel Goepfert

Contact : metmap@orbifly.com




SOURCES & CREDITS :

   NOAA